Time;durP1;ratioP1;P1;durP2;ratioP2;P2;SDS_P1;SDS_P2;PMS_P1;PMS_P2;Temp;Humidity;BMP_temperature;BMP_pressure;BME280_temperature;BME280_humidity;BME280_pressure;Samples;Min_cycle;Max_cycle;Signal;HPM_P1;HPM_P2
2022/10/25 00:01:41;;;;;;;9.68;2.85;;;;;;;13.51;97.98;101076.28;6188651;23;20017;-87
2022/10/25 00:04:06;;;;;;;10.65;2.80;;;;;;;13.54;97.85;101080.75;6182157;23;20005;-87
2022/10/25 00:06:31;;;;;;;10.90;2.60;;;;;;;13.47;97.58;101065.66;6162721;23;20084;-87
2022/10/25 00:08:57;;;;;;;12.32;2.88;;;;;;;13.55;97.50;101078.97;6161740;23;20096;-87
2022/10/25 00:11:32;;;;;;;11.32;2.67;;;;;;;13.56;97.86;101088.69;6162723;23;20071;-87
2022/10/25 00:13:59;;;;;;;9.55;2.72;;;;;;;13.53;97.64;101085.16;6188144;23;20005;-88
2022/10/25 00:16:31;;;;;;;13.50;3.13;;;;;;;13.53;97.94;101094.88;6188917;23;20065;-87
2022/10/25 00:18:56;;;;;;;10.30;2.53;;;;;;;13.52;97.91;101093.09;6186550;23;20005;-87
2022/10/25 00:21:22;;;;;;;11.68;2.70;;;;;;;13.52;98.00;101091.34;6162799;23;20005;-87
2022/10/25 00:23:52;;;;;;;14.98;3.08;;;;;;;13.51;98.31;101091.34;6162482;23;20104;-87
2022/10/25 00:26:21;;;;;;;8.88;2.60;;;;;;;13.55;98.10;101097.53;6162016;23;20419;-87
2022/10/25 00:28:47;;;;;;;10.90;2.70;;;;;;;13.55;98.16;101089.59;6186459;23;20005;-87
2022/10/25 00:31:15;;;;;;;13.15;2.92;;;;;;;13.55;98.35;101087.81;6187837;23;20015;-87
2022/10/25 00:33:41;;;;;;;11.10;3.10;;;;;;;13.56;98.36;101096.66;6186679;23;20009;-87
2022/10/25 00:36:13;;;;;;;9.77;2.60;;;;;;;13.60;98.30;101098.44;6188363;23;20024;-87
2022/10/25 00:38:39;;;;;;;12.23;3.00;;;;;;;13.62;98.24;101102.88;6188290;23;20020;-88
2022/10/25 00:41:05;;;;;;;12.43;2.80;;;;;;;13.59;98.07;101094.03;6161733;23;20096;-86
2022/10/25 00:43:37;;;;;;;12.55;2.67;;;;;;;13.69;98.08;101109.06;6187852;23;20076;-86
2022/10/25 00:46:10;;;;;;;11.90;3.03;;;;;;;13.70;97.88;101102.88;6187765;23;20009;-87
2022/10/25 00:48:39;;;;;;;12.38;2.78;;;;;;;13.72;97.85;101112.63;6188053;23;20011;-86
2022/10/25 00:51:05;;;;;;;13.25;2.63;;;;;;;13.74;97.95;101120.59;6187282;23;20489;-86
2022/10/25 00:53:35;;;;;;;10.05;2.58;;;;;;;13.78;97.70;101109.97;6161973;23;20087;-87
2022/10/25 00:56:13;;;;;;;11.40;3.05;;;;;;;13.78;97.42;101115.28;6188457;23;20076;-87
2022/10/25 00:58:40;;;;;;;10.60;2.83;;;;;;;13.80;97.59;101111.78;6188172;23;20285;-88
2022/10/25 01:01:07;;;;;;;11.43;2.90;;;;;;;13.83;97.04;101112.63;6137963;23;20036;-87
2022/10/25 01:03:35;;;;;;;13.45;2.78;;;;;;;13.80;96.85;101102.03;6189475;23;20423;-86
2022/10/25 01:06:06;;;;;;;12.90;2.90;;;;;;;13.82;96.96;101113.53;6163161;23;20005;-87
2022/10/25 01:08:33;;;;;;;14.52;2.55;;;;;;;13.78;96.65;101112.63;6189695;23;20092;-87
2022/10/25 01:10:58;;;;;;;12.35;2.88;;;;;;;13.79;96.64;101113.53;6161716;23;20008;-86
2022/10/25 01:13:24;;;;;;;12.35;2.88;;;;;;;13.78;96.79;101117.06;6161202;23;20068;-85
2022/10/25 01:16:04;;;;;;;9.90;2.85;;;;;;;13.79;96.30;101121.50;6186323;23;20005;-86
2022/10/25 01:18:42;;;;;;;12.27;2.58;;;;;;;13.78;96.64;101125.03;6186904;23;20008;-86
2022/10/25 01:21:58;;;;;;;8.85;2.42;;;;;;;13.77;96.46;101123.25;6187026;23;20040;-89
2022/10/25 01:24:39;;;;;;;13.82;2.60;;;;;;;13.75;96.06;101119.72;6136682;23;20009;-87
2022/10/25 01:27:49;;;;;;;12.85;3.13;;;;;;;13.74;96.44;101126.78;6185456;23;20015;-86
2022/10/25 01:30:21;;;;;;;10.98;2.40;;;;;;;13.74;96.61;101120.59;6136847;23;20006;-86
2022/10/25 01:32:55;;;;;;;8.48;2.47;;;;;;;13.74;96.67;101126.78;6160601;23;20071;-86
2022/10/25 01:35:26;;;;;;;8.88;2.70;;;;;;;13.75;96.83;101130.34;6185783;23;20020;-86
2022/10/25 01:38:31;;;;;;;15.43;2.90;;;;;;;13.77;96.85;101133.88;6197450;23;20013;-86
2022/10/25 01:41:04;;;;;;;9.38;2.65;;;;;;;13.77;96.95;101128.56;6187643;23;20001;-86
2022/10/25 01:44:26;;;;;;;12.52;2.80;;;;;;;13.82;96.69;101136.56;6186267;23;20015;-86
2022/10/25 01:47:10;;;;;;;13.47;3.03;;;;;;;13.82;96.94;101137.44;6124812;23;20016;-86
2022/10/25 01:49:48;;;;;;;11.60;2.58;;;;;;;13.81;96.22;101137.44;6125012;23;20401;-86
2022/10/25 01:52:18;;;;;;;8.98;2.53;;;;;;;13.84;96.64;101137.47;6192321;23;20033;-86
2022/10/25 01:54:43;;;;;;;15.55;3.20;;;;;;;13.80;96.70;101131.25;6187169;23;20085;-86
2022/10/25 01:57:30;;;;;;;11.18;2.42;;;;;;;13.81;96.56;101137.44;6185561;23;20005;-86
2022/10/25 02:00:29;;;;;;;10.38;2.83;;;;;;;13.79;96.89;101137.44;6186942;23;20012;-86
2022/10/25 02:03:37;;;;;;;9.95;2.45;;;;;;;13.75;96.92;101138.31;6154075;23;20012;-86
2022/10/25 02:06:23;;;;;;;11.18;2.50;;;;;;;13.72;96.87;101133.00;6199356;23;20012;-87
2022/10/25 02:09:22;;;;;;;9.95;2.78;;;;;;;13.67;97.07;101140.97;6187079;23;19997;-86
2022/10/25 02:11:50;;;;;;;11.70;2.67;;;;;;;13.66;96.43;101149.81;6186083;23;20420;-86
2022/10/25 02:14:22;;;;;;;15.82;2.72;;;;;;;13.65;96.75;101144.47;6186954;23;20069;-86
2022/10/25 02:16:53;;;;;;;10.40;2.35;;;;;;;13.63;96.90;101155.09;6185439;23;20013;-86
2022/10/25 02:19:31;;;;;;;7.97;2.50;;;;;;;13.64;96.93;101151.56;6187392;23;20005;-86
2022/10/25 02:22:00;;;;;;;11.88;2.42;;;;;;;13.64;96.98;101154.22;6187917;23;20001;-86
2022/10/25 02:24:27;;;;;;;14.13;2.97;;;;;;;13.64;97.12;101158.63;6187308;23;20016;-86
2022/10/25 02:26:54;;;;;;;11.57;2.60;;;;;;;13.60;97.27;101152.44;6186590;23;20020;-86
2022/10/25 02:29:24;;;;;;;15.32;2.80;;;;;;;13.58;97.10;101146.25;6188210;23;20001;-86
2022/10/25 02:31:50;;;;;;;9.63;2.42;;;;;;;13.52;97.43;101157.72;6186491;23;20032;-86
2022/10/25 02:34:20;;;;;;;15.75;3.03;;;;;;;13.46;97.69;101164.78;6185861;23;20036;-86
2022/10/25 02:36:49;;;;;;;10.77;2.70;;;;;;;13.45;97.88;101161.25;6187650;23;20498;-86
2022/10/25 02:39:17;;;;;;;9.82;2.70;;;;;;;13.44;97.39;101164.75;6188373;23;20020;-85
2022/10/25 02:41:42;;;;;;;11.75;2.85;;;;;;;13.40;97.49;101164.72;6200001;23;20052;-86
2022/10/25 02:44:07;;;;;;;9.80;2.50;;;;;;;13.39;97.81;101165.63;6207087;23;20407;-87
2022/10/25 02:46:35;;;;;;;11.05;2.85;;;;;;;13.35;97.65;101159.41;6210471;23;20013;-87
2022/10/25 02:49:01;;;;;;;9.10;2.67;;;;;;;13.31;97.67;101159.38;6213397;23;20065;-87
2022/10/25 02:51:26;;;;;;;11.63;2.70;;;;;;;13.37;97.67;101173.59;6185713;23;19989;-86
2022/10/25 02:53:51;;;;;;;10.52;2.70;;;;;;;13.37;97.68;101170.94;6184331;23;20012;-86
2022/10/25 02:56:20;;;;;;;13.18;2.90;;;;;;;13.32;97.74;101167.38;6202789;23;20104;-86
2022/10/25 02:58:56;;;;;;;10.43;2.50;;;;;;;13.31;97.69;101164.69;6197909;23;20021;-86
2022/10/25 03:01:22;;;;;;;10.98;2.63;;;;;;;13.30;98.03;101169.13;6204669;23;20012;-86
2022/10/25 03:03:47;;;;;;;11.57;2.85;;;;;;;13.32;98.06;101175.34;6209044;23;20005;-86
2022/10/25 03:06:13;;;;;;;15.65;2.90;;;;;;;13.31;98.29;101176.19;6186365;23;20012;-87
2022/10/25 03:08:42;;;;;;;10.38;2.90;;;;;;;13.27;98.04;101180.63;6181594;23;20020;-87
2022/10/25 03:11:09;;;;;;;7.88;2.78;;;;;;;13.19;98.23;101173.44;6202071;23;20009;-86
2022/10/25 03:13:35;;;;;;;13.02;2.70;;;;;;;13.26;98.24;101177.94;6204013;23;20021;-85
2022/10/25 03:16:02;;;;;;;13.82;2.70;;;;;;;13.20;97.90;101178.78;6207552;23;20036;-85
2022/10/25 03:18:27;;;;;;;11.48;2.80;;;;;;;13.24;97.92;101190.34;6187556;23;20082;-87
2022/10/25 03:21:00;;;;;;;8.88;2.60;;;;;;;13.18;98.36;101187.59;6188577;23;20001;-88
2022/10/25 03:23:26;;;;;;;6.45;2.30;;;;;;;13.21;98.69;101203.53;6188188;23;20032;-86
2022/10/25 03:25:58;;;;;;;9.60;2.60;;;;;;;13.22;98.33;101195.63;6213599;23;20045;-86
2022/10/25 03:28:26;;;;;;;8.15;2.63;;;;;;;13.24;98.46;101204.50;6188346;23;20007;-86
2022/10/25 03:30:51;;;;;;;10.90;2.85;;;;;;;13.21;98.47;101201.78;6163532;23;20001;-86
2022/10/25 03:33:19;;;;;;;7.20;2.53;;;;;;;13.18;98.28;101203.50;6187638;23;19996;-86
2022/10/25 03:35:48;;;;;;;7.68;2.58;;;;;;;13.10;98.31;101199.94;6213588;23;19993;-86
2022/10/25 03:38:14;;;;;;;8.98;2.42;;;;;;;13.13;98.25;101205.25;6229025;23;20052;-87
2022/10/25 03:40:42;;;;;;;9.63;2.78;;;;;;;13.11;98.12;101215.00;6212859;23;20009;-89
2022/10/25 03:43:08;;;;;;;9.82;2.58;;;;;;;13.10;98.20;101224.69;6212727;23;19989;-88
2022/10/25 03:45:33;;;;;;;8.05;2.53;;;;;;;13.09;98.00;101227.34;6213251;23;20065;-86
2022/10/25 03:47:58;;;;;;;7.07;2.50;;;;;;;13.02;98.08;101231.75;6212173;23;20024;-87
2022/10/25 03:50:24;;;;;;;9.98;2.75;;;;;;;13.00;98.38;101236.13;6199420;23;20064;-86
2022/10/25 03:52:49;;;;;;;10.88;2.65;;;;;;;12.96;98.47;101221.06;6202079;23;20412;-87
2022/10/25 03:55:22;;;;;;;7.55;2.50;;;;;;;12.96;98.44;101229.03;6196551;23;20019;-86
2022/10/25 03:57:48;;;;;;;8.80;2.70;;;;;;;12.90;98.41;101218.38;6196460;23;20092;-86
2022/10/25 04:00:22;;;;;;;10.57;2.80;;;;;;;12.93;98.76;101231.66;6195159;23;20005;-86
2022/10/25 04:02:58;;;;;;;9.98;2.67;;;;;;;12.91;98.75;101234.31;6221201;23;20025;-86
2022/10/25 04:05:23;;;;;;;9.35;2.67;;;;;;;12.92;98.74;101238.72;6204047;23;20012;-85
2022/10/25 04:07:49;;;;;;;9.45;2.70;;;;;;;12.91;98.78;101236.94;6204443;23;20001;-86
2022/10/25 04:10:18;;;;;;;10.73;2.58;;;;;;;12.90;99.02;101239.59;6222577;23;20192;-85
2022/10/25 04:12:43;;;;;;;10.68;3.00;;;;;;;12.93;99.20;101248.47;6170608;23;20009;-86
2022/10/25 04:15:09;;;;;;;10.30;2.63;;;;;;;12.86;99.28;101229.84;6168605;23;20016;-87
2022/10/25 04:17:34;;;;;;;14.38;3.20;;;;;;;12.91;99.66;101230.75;6194463;23;20005;-86
2022/10/25 04:20:00;;;;;;;8.80;2.70;;;;;;;12.93;99.63;101240.53;6191517;23;20005;-86
2022/10/25 04:22:25;;;;;;;8.77;2.80;;;;;;;12.91;99.43;101234.31;6189671;23;20054;-86
2022/10/25 04:24:53;;;;;;;7.78;2.97;;;;;;;12.85;99.54;101223.66;6188504;23;20009;-85
2022/10/25 04:27:21;;;;;;;13.57;2.75;;;;;;;12.90;98.96;101244.91;6192764;23;20562;-86
2022/10/25 04:29:50;;;;;;;7.13;2.60;;;;;;;12.88;99.32;101252.84;6211729;23;20091;-86
2022/10/25 04:32:15;;;;;;;8.55;2.88;;;;;;;12.92;99.23;101246.69;6185906;23;20021;-85
2022/10/25 04:34:41;;;;;;;9.48;2.70;;;;;;;12.90;99.42;101259.06;6186220;23;20009;-86
2022/10/25 04:37:06;;;;;;;12.43;3.08;;;;;;;12.85;99.36;101252.84;6161294;23;20076;-86
2022/10/25 04:39:31;;;;;;;9.35;3.05;;;;;;;12.85;99.37;101252.84;6137253;23;20021;-86
2022/10/25 04:41:57;;;;;;;9.10;2.97;;;;;;;12.85;99.28;101258.13;6162686;23;20355;-85
2022/10/25 04:44:22;;;;;;;10.55;2.90;;;;;;;12.84;99.72;101258.09;6162158;23;20420;-86
2022/10/25 04:46:48;;;;;;;9.15;2.95;;;;;;;12.81;99.15;101256.34;6187434;23;20557;-86
2022/10/25 04:49:14;;;;;;;10.65;3.03;;;;;;;12.78;99.24;101257.19;6188087;23;20013;-85
2022/10/25 04:51:40;;;;;;;11.18;3.30;;;;;;;12.78;99.40;101258.94;6187918;23;20001;-86
2022/10/25 04:54:05;;;;;;;8.77;3.40;;;;;;;12.76;99.54;101263.34;6187684;23;20032;-85
2022/10/25 04:56:31;;;;;;;12.75;3.22;;;;;;;12.73;99.85;101252.72;6136558;23;20016;-85
2022/10/25 04:58:57;;;;;;;11.15;2.80;;;;;;;12.76;99.79;101266.00;6161281;23;20040;-86
2022/10/25 05:01:23;;;;;;;9.32;3.47;;;;;;;12.71;99.98;101254.47;6186667;23;20092;-85
2022/10/25 05:03:48;;;;;;;9.25;3.28;;;;;;;12.73;99.95;101268.63;6186880;23;20438;-86
2022/10/25 05:06:19;;;;;;;14.68;3.30;;;;;;;12.65;99.91;101260.63;6160911;23;20020;-86
2022/10/25 05:08:47;;;;;;;9.80;3.35;;;;;;;12.62;100.00;101263.22;6188178;23;20008;-85
2022/10/25 05:11:14;;;;;;;10.55;3.28;;;;;;;12.64;100.00;101263.25;6187410;23;20009;-86
2022/10/25 05:13:40;;;;;;;11.50;3.40;;;;;;;12.59;99.86;101257.91;6187266;23;20012;-86
2022/10/25 05:16:10;;;;;;;10.05;3.28;;;;;;;12.61;99.86;101266.75;6186149;23;20332;-86
2022/10/25 05:18:35;;;;;;;12.60;3.47;;;;;;;12.63;99.83;101282.66;6186842;23;20500;-85
2022/10/25 05:21:03;;;;;;;8.85;3.35;;;;;;;12.61;100.00;101285.31;6160482;23;20012;-85
2022/10/25 05:23:29;;;;;;;11.65;3.35;;;;;;;12.59;99.76;101276.47;6185607;23;20470;-86
2022/10/25 05:26:05;;;;;;;8.68;3.10;;;;;;;12.60;100.00;101295.91;6187367;23;20016;-86
2022/10/25 05:28:32;;;;;;;9.93;3.28;;;;;;;12.52;100.00;101282.59;6185578;23;20005;-85
2022/10/25 05:31:02;;;;;;;6.82;2.83;;;;;;;12.53;100.00;101290.53;6136186;23;20067;-86
2022/10/25 05:33:27;;;;;;;9.05;3.20;;;;;;;12.53;100.00;101297.59;6186968;23;20422;-86
2022/10/25 05:35:52;;;;;;;10.45;3.00;;;;;;;12.53;100.00;101295.84;6160652;23;20047;-86
2022/10/25 05:38:18;;;;;;;11.68;3.28;;;;;;;12.52;100.00;101301.13;6174524;23;20035;-85
2022/10/25 05:40:51;;;;;;;9.18;2.83;;;;;;;12.47;100.00;101293.13;6186916;23;20080;-85
2022/10/25 05:43:16;;;;;;;11.88;3.00;;;;;;;12.49;100.00;101309.94;6187374;23;20326;-85
2022/10/25 05:45:42;;;;;;;7.57;2.97;;;;;;;12.44;100.00;101295.75;6184873;23;20013;-86
2022/10/25 05:48:07;;;;;;;8.80;3.20;;;;;;;12.46;100.00;101307.28;6160323;23;20064;-85
2022/10/25 05:50:35;;;;;;;10.57;3.05;;;;;;;12.44;100.00;101305.47;6210731;23;20013;-85
2022/10/25 05:53:00;;;;;;;7.60;3.03;;;;;;;12.39;100.00;101304.53;6186228;23;20063;-85
2022/10/25 05:55:26;;;;;;;7.47;2.83;;;;;;;12.44;100.00;101318.72;6185361;23;20010;-85
2022/10/25 05:57:51;;;;;;;13.07;3.10;;;;;;;12.41;100.00;101316.03;6185555;23;20327;-86
2022/10/25 06:00:19;;;;;;;11.43;3.17;;;;;;;12.42;100.00;101312.50;6185568;23;20044;-85
2022/10/25 06:02:44;;;;;;;7.55;3.08;;;;;;;12.42;100.00;101331.06;6186447;23;20038;-86
2022/10/25 06:05:10;;;;;;;8.80;3.40;;;;;;;12.32;100.00;101316.81;6210004;23;20020;-87
2022/10/25 06:07:35;;;;;;;10.23;3.22;;;;;;;12.40;100.00;101320.44;6135298;23;20462;-86
2022/10/25 06:10:01;;;;;;;12.38;3.58;;;;;;;12.34;100.00;101327.47;6186790;23;20005;-86
2022/10/25 06:12:28;;;;;;;9.93;3.33;;;;;;;12.38;100.00;101332.81;6186325;23;20063;-86
2022/10/25 06:14:53;;;;;;;11.82;3.70;;;;;;;12.34;100.00;101327.47;6185287;23;20005;-86
2022/10/25 06:17:19;;;;;;;13.18;3.78;;;;;;;12.41;100.00;101334.59;6184642;23;20015;-87
2022/10/25 06:19:44;;;;;;;13.80;3.88;;;;;;;12.41;100.00;101347.84;6209700;23;20490;-86
2022/10/25 06:22:10;;;;;;;15.75;4.13;;;;;;;12.38;100.00;101340.75;6160283;23;20009;-87
2022/10/25 06:24:38;;;;;;;8.60;3.85;;;;;;;12.36;100.00;101344.25;6209959;23;20044;-87
2022/10/25 06:27:07;;;;;;;9.82;4.45;;;;;;;12.41;100.00;101346.06;6160881;23;20013;-89
2022/10/25 06:29:33;;;;;;;11.13;4.97;;;;;;;12.43;100.00;101360.25;6186705;23;20016;-88
2022/10/25 06:31:58;;;;;;;11.63;4.65;;;;;;;12.48;100.00;101357.63;6186324;23;20040;-88
2022/10/25 06:34:26;;;;;;;11.95;5.25;;;;;;;12.41;100.00;101335.47;6184553;23;20446;-88
2022/10/25 06:36:59;;;;;;;11.90;4.82;;;;;;;12.48;100.00;101365.59;6160281;23;20043;-90
2022/10/25 06:39:30;;;;;;;17.17;5.45;;;;;;;12.43;100.00;101360.25;6184932;23;20071;-88
2022/10/25 06:41:59;;;;;;;14.73;5.10;;;;;;;12.50;100.00;101372.72;6187137;23;20084;-88
2022/10/25 06:44:24;;;;;;;11.27;5.05;;;;;;;12.58;100.00;101387.78;6159750;23;20013;-88
2022/10/25 06:46:49;;;;;;;11.35;5.28;;;;;;;12.54;100.00;101371.84;6187629;23;20423;-84
2022/10/25 06:49:15;;;;;;;9.30;4.55;;;;;;;12.61;100.00;101377.22;6185315;23;20424;-87
2022/10/25 06:51:40;;;;;;;12.55;5.00;;;;;;;12.62;100.00;101368.38;6186426;23;20086;-87
2022/10/25 06:54:08;;;;;;;13.32;5.25;;;;;;;12.60;100.00;101370.16;6160213;23;20019;-85
2022/10/25 06:56:34;;;;;;;11.95;5.40;;;;;;;12.67;100.00;101372.84;6160264;23;20009;-85
2022/10/25 06:59:00;;;;;;;13.70;5.78;;;;;;;12.77;100.00;101382.72;6186510;23;20005;-87
2022/10/25 07:01:25;;;;;;;17.75;5.93;;;;;;;12.75;100.00;101381.78;6184910;23;20317;-84
2022/10/25 07:03:52;;;;;;;12.95;5.75;;;;;;;12.77;100.00;101381.81;6160362;23;20092;-90
2022/10/25 07:06:25;;;;;;;11.95;5.25;;;;;;;12.78;100.00;101375.63;6186337;23;20013;-86
2022/10/25 07:08:53;;;;;;;13.30;5.70;;;;;;;12.81;99.96;101380.97;6160510;23;20514;-86
2022/10/25 07:11:22;;;;;;;11.13;5.57;;;;;;;12.87;99.74;101394.28;6160016;23;20339;-84
2022/10/25 07:13:48;;;;;;;11.52;5.38;;;;;;;12.84;99.55;101393.38;6186174;23;20012;-84
2022/10/25 07:16:15;;;;;;;15.93;5.38;;;;;;;12.81;99.39;101393.34;6185888;23;20009;-85
2022/10/25 07:18:42;;;;;;;12.70;5.20;;;;;;;12.88;99.41;101406.66;6185879;23;20009;-85
2022/10/25 07:21:12;;;;;;;15.68;5.55;;;;;;;12.88;99.25;101406.66;6186256;23;20447;-86
2022/10/25 07:23:41;;;;;;;14.00;5.70;;;;;;;12.90;99.15;101412.91;6184989;23;20068;-88
2022/10/25 07:26:15;;;;;;;13.13;5.95;;;;;;;12.96;99.48;101420.91;6186186;23;20004;-86
2022/10/25 07:28:45;;;;;;;11.45;5.35;;;;;;;13.00;99.51;101421.84;6160119;23;20013;-89
2022/10/25 07:31:17;;;;;;;13.65;5.68;;;;;;;12.97;99.44;101416.47;6187843;23;20001;-85
2022/10/25 07:33:43;;;;;;;15.45;5.20;;;;;;;13.10;99.22;101428.09;6161423;23;20009;-88
2022/10/25 07:36:08;;;;;;;16.45;5.43;;;;;;;13.11;99.35;101430.78;6187620;23;20012;-86
2022/10/25 07:38:33;;;;;;;12.00;5.50;;;;;;;13.13;99.32;101423.72;6136431;23;20021;-84
2022/10/25 07:41:02;;;;;;;12.80;5.05;;;;;;;13.10;99.21;101425.47;6188214;23;20407;-88
2022/10/25 07:43:28;;;;;;;12.30;5.40;;;;;;;13.20;99.39;101430.88;6187772;23;20016;-85
2022/10/25 07:45:54;;;;;;;11.15;5.85;;;;;;;13.18;99.11;101427.31;6161484;23;20010;-85
2022/10/25 07:48:23;;;;;;;12.88;5.50;;;;;;;13.26;98.64;101435.38;6187934;23;20005;-85
2022/10/25 07:50:48;;;;;;;13.63;5.20;;;;;;;13.30;98.22;101433.66;6186446;23;20017;-87
2022/10/25 07:53:14;;;;;;;22.45;5.63;;;;;;;13.29;98.33;101427.47;6185490;23;20497;-86
2022/10/25 07:55:39;;;;;;;17.67;5.60;;;;;;;13.33;97.89;101437.22;6161695;23;20005;-83
2022/10/25 07:58:06;;;;;;;15.15;4.97;;;;;;;13.38;97.80;101431.94;6161718;23;20096;-83
2022/10/25 08:00:34;;;;;;;15.55;5.82;;;;;;;13.42;97.96;101442.59;6188396;23;20091;-83
2022/10/25 08:02:59;;;;;;;18.05;5.95;;;;;;;13.45;97.48;101445.31;6161569;23;20015;-82
2022/10/25 08:05:25;;;;;;;14.32;5.40;;;;;;;13.46;97.03;101444.41;6186895;23;20100;-84
2022/10/25 08:07:50;;;;;;;13.82;5.43;;;;;;;13.49;97.12;101448.88;6188131;23;20412;-85
2022/10/25 08:10:20;;;;;;;14.23;5.70;;;;;;;13.50;97.08;101451.53;6188377;23;20036;-84
2022/10/25 08:12:50;;;;;;;12.30;5.57;;;;;;;13.50;97.00;101454.19;6186120;23;20009;-86
2022/10/25 08:15:16;;;;;;;15.20;5.65;;;;;;;13.54;97.47;101447.13;6187387;23;20064;-84
2022/10/25 08:17:42;;;;;;;18.65;5.60;;;;;;;13.57;96.31;101447.16;6187716;23;20001;-86
2022/10/25 08:20:08;;;;;;;12.75;5.50;;;;;;;13.60;96.65;101475.50;6187431;23;20104;-83
2022/10/25 08:22:34;;;;;;;17.05;5.45;;;;;;;13.57;96.22;101455.09;6188016;23;20019;-84
2022/10/25 08:24:59;;;;;;;13.90;5.38;;;;;;;13.60;95.97;101467.53;6187559;23;20420;-86
2022/10/25 08:27:25;;;;;;;18.23;6.28;;;;;;;13.60;96.15;101455.16;6187567;23;20016;-84
2022/10/25 08:29:51;;;;;;;13.48;5.00;;;;;;;13.66;95.99;101460.53;6160924;23;20079;-85
2022/10/25 08:32:16;;;;;;;12.80;5.55;;;;;;;13.68;96.04;101471.16;6187154;23;20040;-86
2022/10/25 08:34:41;;;;;;;15.63;5.80;;;;;;;13.69;95.73;101470.25;6161004;23;20012;-85
2022/10/25 08:37:10;;;;;;;13.02;5.38;;;;;;;13.72;95.70;101465.88;6160462;23;20020;-85
2022/10/25 08:39:36;;;;;;;13.07;5.82;;;;;;;13.75;96.05;101473.88;6187757;23;20035;-87
2022/10/25 08:42:01;;;;;;;13.38;5.43;;;;;;;13.83;96.05;101465.94;6160833;23;20495;-87
2022/10/25 08:44:38;;;;;;;18.48;5.75;;;;;;;13.93;95.51;101466.91;6186401;23;20020;-90
2022/10/25 08:47:23;;;;;;;16.52;5.30;;;;;;;13.92;94.83;101455.41;6187035;23;20394;-89
2022/10/25 08:49:59;;;;;;;17.55;5.35;;;;;;;14.01;95.05;101459.88;6186228;23;20096;-90
2022/10/25 08:52:36;;;;;;;17.90;5.65;;;;;;;14.15;94.93;101470.59;6187990;23;20005;-88
2022/10/25 08:55:04;;;;;;;14.52;5.40;;;;;;;14.23;93.99;101475.06;6185515;23;20009;-89
2022/10/25 08:57:36;;;;;;;13.85;4.80;;;;;;;14.43;93.81;101464.56;6161032;23;20012;-87
2022/10/25 09:00:09;;;;;;;12.27;4.78;;;;;;;14.75;92.00;101463.81;6188149;23;20047;-87
2022/10/25 09:03:00;;;;;;;11.52;4.70;;;;;;;15.15;89.12;101483.44;6187406;23;20088;-87
2022/10/25 09:05:40;;;;;;;13.45;4.50;;;;;;;15.37;88.13;101486.13;6186770;23;20017;-86
2022/10/25 09:08:24;;;;;;;13.13;4.50;;;;;;;15.42;87.59;101485.28;6187648;23;20413;-85
2022/10/25 09:11:21;;;;;;;9.55;4.43;;;;;;;15.56;87.52;101493.28;6185887;23;20435;-88
2022/10/25 09:13:54;;;;;;;14.40;4.40;;;;;;;15.64;86.48;101486.22;6186959;23;20025;-87
2022/10/25 09:16:52;;;;;;;11.32;4.45;;;;;;;15.74;86.38;101503.97;6187209;23;20040;-92
2022/10/25 09:19:21;;;;;;;8.10;4.03;;;;;;;15.65;85.81;101516.41;6188035;23;20009;-87
2022/10/25 09:22:03;;;;;;;9.40;4.20;;;;;;;15.53;85.85;101498.59;6185470;23;20015;-91
2022/10/25 09:24:36;;;;;;;12.77;4.20;;;;;;;15.58;86.27;101510.13;6186535;23;20017;-88
2022/10/25 09:27:22;;;;;;;11.25;3.97;;;;;;;15.53;86.28;101506.59;6187133;23;20012;-86
2022/10/25 09:30:02;;;;;;;8.63;3.72;;;;;;;15.43;87.12;101496.81;6160655;23;20478;-88
2022/10/25 09:32:36;;;;;;;9.57;3.78;;;;;;;15.45;86.35;101514.56;6187066;23;20009;-87
2022/10/25 09:35:03;;;;;;;11.45;3.60;;;;;;;15.36;85.90;101514.53;6186034;23;20092;-86
2022/10/25 09:37:38;;;;;;;14.00;4.38;;;;;;;15.41;86.52;101512.78;6187412;23;20509;-86
2022/10/25 09:40:13;;;;;;;14.40;4.30;;;;;;;15.48;86.86;101517.22;6186635;23;20032;-89
2022/10/25 09:42:52;;;;;;;12.25;4.00;;;;;;;15.55;85.85;101522.59;6187420;23;20007;-88
2022/10/25 09:45:48;;;;;;;12.15;4.40;;;;;;;15.49;86.11;101516.34;6160346;23;20013;-87
2022/10/25 09:48:24;;;;;;;12.65;4.40;;;;;;;15.55;85.79;101520.81;6186674;23;20011;-89
2022/10/25 09:51:02;;;;;;;9.13;3.70;;;;;;;15.52;85.13;101519.00;6187922;23;20063;-87
2022/10/25 09:53:42;;;;;;;13.32;3.80;;;;;;;15.51;85.47;101514.59;6186420;23;20009;-91
2022/10/25 09:56:08;;;;;;;14.88;3.80;;;;;;;15.44;84.69;101511.91;6185593;23;20039;-93
2022/10/25 09:58:38;;;;;;;12.82;3.72;;;;;;;15.45;85.35;101516.34;6187606;23;20017;-89
2022/10/25 10:01:24;;;;;;;9.55;3.92;;;;;;;15.44;85.76;101514.56;6160826;23;20047;-88
2022/10/25 10:03:57;;;;;;;10.00;3.47;;;;;;;15.49;85.45;101521.66;6186362;23;20005;-91
2022/10/25 10:06:51;;;;;;;9.80;3.30;;;;;;;15.41;85.64;101520.75;6185895;23;20012;-93
2022/10/25 10:09:32;;;;;;;14.85;3.65;;;;;;;15.41;85.10;101528.75;6160447;23;20007;-94
2022/10/25 10:12:16;;;;;;;11.48;3.75;;;;;;;15.44;85.50;101518.13;6185797;23;20013;-91
2022/10/25 10:15:00;;;;;;;11.13;3.83;;;;;;;15.56;86.17;101529.69;6185590;23;20015;-87
2022/10/25 10:17:30;;;;;;;10.45;3.53;;;;;;;15.64;85.63;101527.91;6187851;23;20004;-89
2022/10/25 10:20:19;;;;;;;10.38;3.20;;;;;;;15.69;84.96;101534.16;6186324;23;20008;-93
2022/10/25 10:23:09;;;;;;;13.68;3.45;;;;;;;15.67;83.31;101547.50;6187490;23;20013;-93
2022/10/25 10:25:49;;;;;;;11.23;3.50;;;;;;;15.58;84.44;101533.22;6166863;23;20404;-90
2022/10/25 10:28:14;;;;;;;12.07;3.20;;;;;;;15.65;84.44;101541.25;6160431;23;20005;-92
2022/10/25 10:30:40;;;;;;;13.60;3.50;;;;;;;15.63;83.52;101556.34;6160528;23;20001;-89
2022/10/25 10:33:16;;;;;;;11.52;3.55;;;;;;;15.49;84.25;101542.97;6160163;23;20462;-87
2022/10/25 10:36:25;;;;;;;11.00;3.40;;;;;;;15.49;84.22;101548.31;6161253;23;20059;-89
2022/10/25 10:39:22;;;;;;;;;;;;;;;;;;;;;
2022/10/25 10:42:06;;;;;;;11.57;3.40;;;;;;;15.47;84.43;101557.19;6167098;23;20087;-88
2022/10/25 10:44:56;;;;;;;11.32;3.40;;;;;;;15.41;85.27;101557.16;6165000;23;20419;-92
2022/10/25 10:48:01;;;;;;;;;;;;;;;;;;;;;
2022/10/25 10:50:34;;;;;;;10.05;3.35;;;;;;;15.42;85.58;101549.19;6191514;23;20037;-93
2022/10/25 10:59:54;;;;;;;14.00;3.40;;;;;;;15.51;83.86;101549.22;6186185;23;20035;-90
2022/10/25 11:02:45;;;;;;;8.57;3.30;;;;;;;15.68;84.22;101553.72;6186543;23;20472;-92
2022/10/25 11:09:38;;;;;;;;;;;;;;;;;;;;;
2022/10/25 11:11:44;;;;;;;;;;;;;;;;;;;;;
2022/10/25 11:18:02;;;;;;;;;;;;;;;;;;;;;
2022/10/25 11:20:58;;;;;;;;;;;;;;;;;;;;;
2022/10/25 11:23:35;;;;;;;11.63;3.35;;;;;;;16.28;79.54;101560.81;6187003;23;20061;-86
2022/10/25 11:26:18;;;;;;;11.88;3.15;;;;;;;16.46;81.02;101567.00;6185405;23;20084;-87
2022/10/25 11:29:15;;;;;;;11.63;3.47;;;;;;;16.80;80.59;101559.81;6185606;23;20423;-88
2022/10/25 11:32:24;;;;;;;;;;;;;;;;;;;;;
2022/10/25 11:35:12;;;;;;;14.00;3.20;;;;;;;17.46;76.12;101546.13;6186930;23;20087;-90
2022/10/25 11:38:18;;;;;;;;;;;;;;;;;;;;;
2022/10/25 11:41:31;;;;;;;;;;;;;;;;;;;;;
2022/10/25 11:47:27;;;;;;;10.30;2.78;;;;;;;17.36;74.74;101553.34;6170288;23;20358;-87
2022/10/25 11:50:16;;;;;;;7.10;2.72;;;;;;;17.24;75.00;101542.72;6186686;23;20092;-91
2022/10/25 11:53:06;;;;;;;10.73;3.13;;;;;;;17.16;74.99;101552.53;6186535;23;20082;-89
2022/10/25 11:55:51;;;;;;;8.88;2.63;;;;;;;17.06;75.77;101557.06;6184556;23;20080;-91
2022/10/25 11:58:38;;;;;;;12.02;3.00;;;;;;;16.96;76.03;101548.22;6186749;23;20009;-88
2022/10/25 12:01:30;;;;;;;8.02;3.00;;;;;;;17.00;76.22;101549.06;6185031;23;20100;-93
2022/10/25 12:04:13;;;;;;;9.15;2.60;;;;;;;17.17;76.85;101530.28;6184002;23;20013;-88
2022/10/25 12:06:57;;;;;;;8.35;3.00;;;;;;;17.59;75.17;101530.91;6186353;23;20008;-86
2022/10/25 12:09:41;;;;;;;8.77;2.60;;;;;;;17.85;72.25;101545.00;6184418;23;20060;-89
2022/10/25 12:12:16;;;;;;;7.07;2.85;;;;;;;17.78;73.15;101535.28;6186076;23;20016;-93